Time;durP1;ratioP1;P1;durP2;ratioP2;P2;SDS_P1;SDS_P2;PMS_P1;PMS_P2;Temp;Humidity;BMP_temperature;BMP_pressure;BME280_temperature;BME280_humidity;BME280_pressure;Samples;Min_cycle;Max_cycle;Signal;HPM_P1;HPM_P2
2022/04/09 00:00:17;;;;;;;13.13;2.17;;;5.00;99.90;;;;;;5047593;28;20116;-42
2022/04/09 00:02:43;;;;;;;9.73;2.53;;;5.00;99.90;;;;;;5047403;28;20120;-41
2022/04/09 00:05:11;;;;;;;10.90;2.53;;;5.00;99.90;;;;;;5048433;28;20124;-43
2022/04/09 00:07:37;;;;;;;8.45;2.53;;;5.00;99.90;;;;;;5047185;28;20017;-42
2022/04/09 00:10:05;;;;;;;7.68;1.90;;;5.00;99.90;;;;;;5047795;28;20035;-41
2022/04/09 00:12:31;;;;;;;11.70;2.42;;;5.00;99.90;;;;;;5047678;28;20017;-42
2022/04/09 00:14:56;;;;;;;11.85;2.58;;;5.00;99.90;;;;;;5046381;28;20634;-41
2022/04/09 00:17:22;;;;;;;10.48;2.47;;;5.00;99.90;;;;;;5047419;28;20024;-41
2022/04/09 00:19:48;;;;;;;10.05;2.17;;;5.00;99.90;;;;;;5047323;28;20055;-42
2022/04/09 00:22:14;;;;;;;11.05;2.75;;;5.00;99.90;;;;;;5046712;28;20021;-40
2022/04/09 00:24:40;;;;;;;8.68;2.42;;;4.90;99.90;;;;;;5047591;28;20025;-41
2022/04/09 00:27:05;;;;;;;9.48;2.17;;;4.90;99.90;;;;;;5046976;28;20006;-42
2022/04/09 00:29:31;;;;;;;9.32;2.33;;;5.00;99.90;;;;;;5046344;28;20101;-41
2022/04/09 00:31:56;;;;;;;9.35;2.00;;;4.90;99.90;;;;;;5046284;28;20817;-42
2022/04/09 00:34:22;;;;;;;7.38;1.73;;;5.00;99.90;;;;;;5047307;28;20037;-42
2022/04/09 00:36:47;;;;;;;12.05;2.05;;;5.00;99.90;;;;;;5046223;28;20114;-42
2022/04/09 00:39:13;;;;;;;8.93;1.65;;;4.90;99.90;;;;;;5047203;28;20048;-42
2022/04/09 00:41:40;;;;;;;9.23;1.88;;;4.90;99.90;;;;;;5047035;28;20060;-42
2022/04/09 00:44:17;;;;;;;7.72;2.33;;;4.90;99.90;;;;;;5046089;28;20040;-43
2022/04/09 00:46:44;;;;;;;6.97;1.77;;;4.90;99.90;;;;;;5046527;28;20071;-41
2022/04/09 00:49:10;;;;;;;8.25;2.20;;;4.90;99.90;;;;;;5046337;28;20029;-41
2022/04/09 00:51:39;;;;;;;11.90;2.25;;;4.90;99.90;;;;;;5027077;28;20034;-42
2022/04/09 00:54:05;;;;;;;8.68;2.10;;;4.90;99.90;;;;;;5040483;28;20029;-43
2022/04/09 00:56:32;;;;;;;5.28;2.05;;;4.90;99.90;;;;;;5046062;28;20053;-44
2022/04/09 00:59:06;;;;;;;8.70;2.05;;;4.90;99.90;;;;;;5046175;28;20100;-42
2022/04/09 01:01:34;;;;;;;9.35;1.90;;;4.90;99.90;;;;;;5045237;28;20025;-43
2022/04/09 01:04:04;;;;;;;6.93;1.98;;;4.90;99.90;;;;;;5045709;28;20021;-42
2022/04/09 01:06:32;;;;;;;7.38;2.20;;;4.90;99.90;;;;;;5046564;28;20056;-41
2022/04/09 01:08:58;;;;;;;8.02;2.25;;;4.90;99.90;;;;;;5045903;28;20040;-41
2022/04/09 01:11:23;;;;;;;11.85;3.05;;;4.80;99.90;;;;;;5046091;28;20025;-42
2022/04/09 01:13:49;;;;;;;11.18;1.98;;;4.80;99.90;;;;;;5045848;28;20032;-41
2022/04/09 01:16:14;;;;;;;6.78;1.83;;;4.80;99.90;;;;;;5046517;28;20036;-43
2022/04/09 01:18:41;;;;;;;4.97;1.45;;;4.70;99.90;;;;;;5045315;28;20036;-44
2022/04/09 01:21:07;;;;;;;6.63;2.08;;;4.80;99.90;;;;;;5046201;28;20048;-43
2022/04/09 01:23:33;;;;;;;6.00;1.92;;;4.70;99.90;;;;;;5046704;28;20028;-42
2022/04/09 01:26:01;;;;;;;5.38;1.73;;;4.70;99.90;;;;;;5045154;28;20079;-42
2022/04/09 01:28:27;;;;;;;8.15;1.75;;;4.60;99.90;;;;;;5046432;28;20031;-42
2022/04/09 01:30:54;;;;;;;6.97;2.20;;;4.70;99.90;;;;;;5045391;28;20029;-42
2022/04/09 01:33:21;;;;;;;6.13;1.60;;;4.60;99.90;;;;;;5045741;28;20013;-43
2022/04/09 01:35:48;;;;;;;7.97;1.50;;;4.70;99.90;;;;;;5044972;28;20521;-41
2022/04/09 01:38:14;;;;;;;7.93;1.63;;;4.60;99.90;;;;;;5046422;28;20462;-41
2022/04/09 01:40:40;;;;;;;7.15;2.28;;;4.70;99.90;;;;;;5044907;28;20511;-40
2022/04/09 01:43:06;;;;;;;12.13;2.40;;;4.60;99.90;;;;;;5046040;28;20114;-41
2022/04/09 01:45:32;;;;;;;9.55;2.00;;;4.60;99.90;;;;;;5045462;28;20810;-42
2022/04/09 01:47:58;;;;;;;7.78;2.13;;;4.60;99.90;;;;;;5045417;28;20559;-42
2022/04/09 01:50:27;;;;;;;11.07;1.90;;;4.60;99.90;;;;;;5046246;28;20108;-42
2022/04/09 01:52:59;;;;;;;9.55;1.90;;;4.60;99.90;;;;;;5044577;28;20029;-42
2022/04/09 01:55:25;;;;;;;4.53;1.88;;;4.60;99.90;;;;;;5045534;28;20032;-42
2022/04/09 01:57:51;;;;;;;7.43;1.55;;;4.60;99.90;;;;;;5045375;28;20511;-42
2022/04/09 02:00:17;;;;;;;7.00;1.85;;;4.60;99.90;;;;;;5045387;28;20025;-42
2022/04/09 02:02:44;;;;;;;8.07;1.67;;;4.60;99.90;;;;;;5045100;28;20017;-42
2022/04/09 02:05:14;;;;;;;7.18;1.92;;;4.60;99.90;;;;;;5046130;28;20025;-41
2022/04/09 02:07:44;;;;;;;5.30;1.50;;;4.60;99.90;;;;;;5044958;28;20025;-42
2022/04/09 02:10:10;;;;;;;6.68;1.73;;;4.60;99.90;;;;;;5045658;28;20025;-40
2022/04/09 02:12:36;;;;;;;6.45;1.50;;;4.60;99.90;;;;;;5045558;28;20025;-39
2022/04/09 02:15:12;;;;;;;5.93;1.63;;;4.60;99.90;;;;;;5044494;28;20110;-40
2022/04/09 02:17:39;;;;;;;8.15;2.50;;;4.70;99.90;;;;;;5044507;28;20048;-42
2022/04/09 02:20:06;;;;;;;9.57;2.53;;;4.80;99.90;;;;;;5045235;28;20083;-42
2022/04/09 02:22:35;;;;;;;8.10;1.67;;;4.90;99.90;;;;;;5044450;28;20033;-42
2022/04/09 02:25:05;;;;;;;8.27;1.60;;;5.00;99.90;;;;;;5045021;28;20366;-42
2022/04/09 02:27:31;;;;;;;9.02;1.55;;;5.00;99.90;;;;;;5043995;28;20028;-42
2022/04/09 02:29:56;;;;;;;6.82;1.88;;;5.10;99.90;;;;;;5043797;28;20032;-41
2022/04/09 02:32:22;;;;;;;4.25;1.35;;;5.10;99.90;;;;;;5045002;28;20025;-42
2022/04/09 02:34:49;;;;;;;6.57;1.17;;;5.10;99.90;;;;;;5044168;28;20052;-42
2022/04/09 02:37:15;;;;;;;5.15;1.13;;;5.20;99.90;;;;;;5045009;28;20041;-42
2022/04/09 02:39:40;;;;;;;4.47;1.45;;;5.10;99.90;;;;;;5044837;28;20029;-43
2022/04/09 02:42:06;;;;;;;3.38;1.23;;;5.10;99.90;;;;;;5044737;28;20028;-41
2022/04/09 02:44:32;;;;;;;4.97;1.17;;;5.10;99.90;;;;;;5045389;28;20025;-41
2022/04/09 02:46:58;;;;;;;4.75;1.20;;;5.00;99.90;;;;;;5044394;28;20525;-39
2022/04/09 02:49:23;;;;;;;8.18;1.20;;;5.00;99.90;;;;;;5044718;28;20044;-41
2022/04/09 02:51:49;;;;;;;5.82;1.02;;;5.00;99.90;;;;;;5044845;28;20029;-41
2022/04/09 02:54:17;;;;;;;4.47;1.17;;;4.90;99.90;;;;;;5045274;28;20040;-42
2022/04/09 02:56:44;;;;;;;3.40;1.10;;;4.90;99.90;;;;;;5043673;28;20464;-42
2022/04/09 02:59:13;;;;;;;4.55;1.17;;;4.80;99.90;;;;;;5045147;28;20070;-42
2022/04/09 03:01:43;;;;;;;8.63;1.50;;;4.80;99.90;;;;;;5045446;28;20028;-41
2022/04/09 03:04:09;;;;;;;6.80;1.40;;;4.80;99.90;;;;;;5043903;28;20029;-42
2022/04/09 03:06:37;;;;;;;7.13;1.70;;;4.70;99.90;;;;;;5045310;28;20033;-42
2022/04/09 03:09:03;;;;;;;4.00;1.17;;;4.70;99.90;;;;;;5044897;28;20043;-41
2022/04/09 03:11:29;;;;;;;2.60;1.10;;;4.70;99.90;;;;;;5044538;28;20025;-42
2022/04/09 03:13:54;;;;;;;3.45;1.00;;;4.70;99.90;;;;;;5044464;28;20032;-41
2022/04/09 03:16:20;;;;;;;4.53;1.00;;;4.70;99.90;;;;;;5045393;28;20112;-41
2022/04/09 03:18:45;;;;;;;7.03;1.80;;;4.60;99.90;;;;;;5043098;28;20469;-41
2022/04/09 03:21:11;;;;;;;5.55;1.23;;;4.60;99.90;;;;;;5045044;28;20508;-42
2022/04/09 03:23:36;;;;;;;6.88;1.20;;;4.60;99.90;;;;;;5044540;28;20032;-41
2022/04/09 03:26:02;;;;;;;5.82;1.17;;;4.60;99.90;;;;;;5044031;28;20099;-42
2022/04/09 03:28:27;;;;;;;5.20;1.35;;;4.60;99.90;;;;;;5044452;28;20729;-41
2022/04/09 03:30:53;;;;;;;5.75;1.17;;;4.60;99.90;;;;;;5043782;28;20025;-41
2022/04/09 03:33:18;;;;;;;5.40;1.65;;;4.70;99.90;;;;;;5044693;28;20785;-40
2022/04/09 03:35:44;;;;;;;8.23;1.70;;;4.70;99.90;;;;;;5044078;28;20119;-42
2022/04/09 03:38:13;;;;;;;4.70;1.27;;;4.70;99.90;;;;;;5045831;28;20029;-41
2022/04/09 03:40:40;;;;;;;3.45;1.10;;;4.70;99.90;;;;;;5048745;28;20115;-42
2022/04/09 03:43:05;;;;;;;3.90;1.30;;;4.70;99.90;;;;;;5047473;28;20432;-41
2022/04/09 03:45:31;;;;;;;4.60;1.25;;;4.60;99.90;;;;;;5047600;28;20188;-42
2022/04/09 03:47:56;;;;;;;5.13;1.20;;;4.60;99.90;;;;;;5048095;28;20689;-41
2022/04/09 03:50:22;;;;;;;3.92;1.20;;;4.60;99.90;;;;;;5048025;28;20107;-42
2022/04/09 03:52:48;;;;;;;4.82;1.30;;;4.60;99.90;;;;;;5046959;28;20029;-40
2022/04/09 03:55:14;;;;;;;4.82;1.13;;;4.50;99.90;;;;;;5048072;28;20037;-41
2022/04/09 03:57:40;;;;;;;7.88;1.23;;;4.50;99.90;;;;;;5047662;28;20052;-40
2022/04/09 04:00:06;;;;;;;4.68;1.35;;;4.50;99.90;;;;;;5047621;28;20025;-43
2022/04/09 04:02:32;;;;;;;5.25;1.65;;;4.50;99.90;;;;;;5048256;28;20028;-43
2022/04/09 04:05:02;;;;;;;5.70;1.70;;;4.50;99.90;;;;;;5047185;28;20033;-42
2022/04/09 04:07:29;;;;;;;7.07;1.70;;;4.40;99.90;;;;;;5047122;28;20031;-42
2022/04/09 04:09:54;;;;;;;6.90;1.63;;;4.50;99.90;;;;;;5047493;28;20029;-41
2022/04/09 04:12:20;;;;;;;7.35;1.88;;;4.50;99.90;;;;;;5047753;28;20643;-42
2022/04/09 04:14:45;;;;;;;7.78;1.60;;;4.50;99.90;;;;;;5046122;28;20909;-41
2022/04/09 04:17:11;;;;;;;4.88;1.55;;;4.50;99.90;;;;;;5047988;28;20062;-41
2022/04/09 04:19:37;;;;;;;5.03;1.13;;;4.50;99.90;;;;;;5047589;28;20021;-42
2022/04/09 04:22:03;;;;;;;7.13;1.92;;;4.60;99.90;;;;;;5046525;28;20021;-42
2022/04/09 04:24:28;;;;;;;6.10;1.63;;;4.60;99.90;;;;;;5047534;28;20047;-41
2022/04/09 04:26:54;;;;;;;5.45;1.45;;;4.70;99.90;;;;;;5046771;28;20021;-41
2022/04/09 04:29:20;;;;;;;4.65;1.25;;;4.70;99.90;;;;;;5047524;28;20032;-42
2022/04/09 04:31:48;;;;;;;9.25;2.08;;;4.80;99.90;;;;;;5046953;28;20090;-42
2022/04/09 04:34:13;;;;;;;7.78;1.70;;;4.80;99.90;;;;;;5046471;28;20624;-41
2022/04/09 04:36:42;;;;;;;6.60;1.42;;;4.90;99.90;;;;;;5047632;28;20055;-42
2022/04/09 04:39:07;;;;;;;3.83;1.40;;;4.90;99.90;;;;;;5047489;28;20032;-42
2022/04/09 04:41:33;;;;;;;5.43;1.50;;;4.80;99.90;;;;;;5046725;28;20027;-43
2022/04/09 04:43:58;;;;;;;6.50;1.42;;;4.80;99.90;;;;;;5047064;28;20049;-42
2022/04/09 04:46:24;;;;;;;7.65;1.65;;;4.80;99.90;;;;;;5046847;28;20032;-42
2022/04/09 04:48:49;;;;;;;10.10;1.90;;;4.90;99.90;;;;;;5045926;28;20068;-41
2022/04/09 04:51:15;;;;;;;7.90;1.70;;;4.90;99.90;;;;;;5046592;28;20025;-42
2022/04/09 04:53:40;;;;;;;5.55;0.98;;;4.90;99.90;;;;;;5046656;28;20029;-42
2022/04/09 04:56:06;;;;;;;6.07;1.05;;;5.00;99.90;;;;;;5046339;28;20120;-42
2022/04/09 04:58:32;;;;;;;7.22;1.42;;;5.00;99.90;;;;;;5046684;28;20052;-42
2022/04/09 05:00:57;;;;;;;5.05;1.40;;;5.00;99.90;;;;;;5046435;28;20116;-42
2022/04/09 05:03:23;;;;;;;4.10;1.10;;;4.90;99.90;;;;;;5046421;28;20021;-42
2022/04/09 05:05:48;;;;;;;5.28;1.50;;;5.00;99.90;;;;;;5046185;28;20592;-39
2022/04/09 05:08:14;;;;;;;3.13;1.15;;;5.00;99.90;;;;;;5046344;28;20021;-42
2022/04/09 05:10:39;;;;;;;4.03;1.30;;;5.00;99.90;;;;;;5046354;28;20025;-42
2022/04/09 05:13:05;;;;;;;6.40;1.70;;;5.00;99.90;;;;;;5046259;28;20534;-42
2022/04/09 05:15:31;;;;;;;4.85;1.33;;;5.00;99.90;;;;;;5046829;28;20036;-43
2022/04/09 05:17:57;;;;;;;4.38;1.38;;;5.00;99.90;;;;;;5045713;28;20028;-43
2022/04/09 05:20:23;;;;;;;3.53;1.20;;;5.00;99.90;;;;;;5046690;28;20040;-41
2022/04/09 05:22:48;;;;;;;4.60;1.08;;;5.00;99.90;;;;;;5045437;28;20135;-42
2022/04/09 05:25:19;;;;;;;3.45;0.90;;;5.00;99.90;;;;;;5045950;28;20158;-41
2022/04/09 05:27:45;;;;;;;2.22;0.73;;;4.90;99.90;;;;;;5046038;28;20429;-39
2022/04/09 05:30:11;;;;;;;4.63;1.23;;;4.90;99.90;;;;;;5046584;28;20048;-42
2022/04/09 05:32:39;;;;;;;3.35;1.20;;;4.90;99.90;;;;;;5045869;28;20132;-41
2022/04/09 05:35:05;;;;;;;3.60;1.10;;;4.90;99.90;;;;;;5045395;28;20046;-41
2022/04/09 05:37:31;;;;;;;3.35;1.13;;;4.90;99.90;;;;;;5045482;28;20384;-41
2022/04/09 05:39:57;;;;;;;4.55;1.20;;;4.90;99.90;;;;;;5046009;28;20497;-41
2022/04/09 05:42:24;;;;;;;3.72;1.15;;;5.00;99.90;;;;;;5046112;28;20085;-42
2022/04/09 05:44:49;;;;;;;5.78;1.42;;;5.00;99.90;;;;;;5044748;28;20024;-41
2022/04/09 05:47:15;;;;;;;9.88;1.42;;;5.00;99.90;;;;;;5045963;28;20091;-40
2022/04/09 05:49:40;;;;;;;6.32;1.40;;;5.00;99.90;;;;;;5044803;28;20029;-42
2022/04/09 05:52:06;;;;;;;6.47;1.70;;;5.00;99.90;;;;;;5045264;28;20037;-41
2022/04/09 05:54:32;;;;;;;3.92;1.10;;;4.90;99.90;;;;;;5046070;28;20045;-41
2022/04/09 05:56:59;;;;;;;3.58;1.02;;;4.90;99.90;;;;;;5045216;28;20033;-40
2022/04/09 05:59:26;;;;;;;7.22;1.77;;;4.90;99.90;;;;;;5044912;28;20029;-42
2022/04/09 06:01:52;;;;;;;5.43;1.40;;;4.90;99.90;;;;;;5045563;28;20480;-41
2022/04/09 06:04:20;;;;;;;4.43;2.08;;;5.00;99.90;;;;;;5045611;28;20532;-41
2022/04/09 06:06:46;;;;;;;6.22;1.40;;;5.00;99.90;;;;;;5044290;28;20449;-41
2022/04/09 06:09:12;;;;;;;6.53;1.50;;;5.10;99.90;;;;;;5046117;28;20128;-42
2022/04/09 06:11:37;;;;;;;5.28;1.42;;;5.10;99.90;;;;;;5045726;28;20127;-42
2022/04/09 06:14:03;;;;;;;7.47;1.98;;;5.20;99.90;;;;;;5044540;28;20112;-41
2022/04/09 06:16:30;;;;;;;6.18;1.58;;;5.40;99.90;;;;;;5045899;28;20476;-42
2022/04/09 06:18:56;;;;;;;4.22;1.17;;;5.60;99.90;;;;;;5044682;28;20013;-39
2022/04/09 06:21:21;;;;;;;7.25;1.50;;;5.80;99.90;;;;;;5045375;28;20035;-41
2022/04/09 06:23:47;;;;;;;3.90;1.40;;;5.90;99.90;;;;;;5045255;28;20020;-42
2022/04/09 06:26:12;;;;;;;5.85;1.10;;;6.00;99.90;;;;;;5045569;28;20047;-42
2022/04/09 06:28:38;;;;;;;3.40;1.08;;;5.90;99.90;;;;;;5045363;28;20465;-42
2022/04/09 06:31:03;;;;;;;7.82;1.20;;;5.90;99.90;;;;;;5045351;28;20562;-41
2022/04/09 06:33:29;;;;;;;3.83;1.20;;;5.90;99.90;;;;;;5045436;28;20384;-41
2022/04/09 06:35:54;;;;;;;5.10;1.55;;;5.80;99.90;;;;;;5043691;28;20090;-41
2022/04/09 06:38:20;;;;;;;3.00;1.17;;;5.70;99.90;;;;;;5046041;28;20476;-43
2022/04/09 06:40:46;;;;;;;4.10;1.17;;;5.70;99.90;;;;;;5044796;28;20478;-41
2022/04/09 06:43:11;;;;;;;5.78;1.30;;;5.70;99.90;;;;;;5044800;28;20471;-42
2022/04/09 06:45:36;;;;;;;7.15;1.45;;;5.70;99.90;;;;;;5045594;28;20044;-42
2022/04/09 06:48:06;;;;;;;3.65;1.10;;;5.90;99.90;;;;;;5043793;28;20133;-42
2022/04/09 06:50:31;;;;;;;5.65;1.42;;;6.00;99.90;;;;;;5045050;28;20104;-42
2022/04/09 06:52:57;;;;;;;7.05;1.60;;;6.10;99.90;;;;;;5044761;28;20182;-42
2022/04/09 06:55:22;;;;;;;5.63;1.80;;;6.10;99.90;;;;;;5044732;28;20036;-43
2022/04/09 06:57:48;;;;;;;6.22;1.42;;;6.10;99.90;;;;;;5044899;28;20060;-40
2022/04/09 07:00:14;;;;;;;6.90;1.70;;;6.10;99.90;;;;;;5044852;28;20528;-42
2022/04/09 07:02:40;;;;;;;6.32;1.60;;;6.10;99.90;;;;;;5044823;28;20024;-41
2022/04/09 07:05:08;;;;;;;6.68;1.77;;;6.10;99.90;;;;;;5045044;28;20053;-42
2022/04/09 07:07:34;;;;;;;6.70;1.70;;;6.10;99.90;;;;;;5042498;28;20120;-41
2022/04/09 07:10:09;;;;;;;7.60;1.83;;;6.10;99.90;;;;;;5042378;28;20079;-40
2022/04/09 07:12:35;;;;;;;8.10;1.88;;;6.20;99.90;;;;;;5044755;28;20033;-40
2022/04/09 07:15:01;;;;;;;6.82;1.70;;;6.20;99.90;;;;;;5047766;28;20461;-42
2022/04/09 07:17:26;;;;;;;5.35;1.50;;;6.20;99.90;;;;;;5047154;28;20021;-41
2022/04/09 07:19:56;;;;;;;9.55;1.95;;;6.30;99.90;;;;;;5048923;28;20028;-39
2022/04/09 07:22:22;;;;;;;6.78;1.83;;;6.40;99.90;;;;;;5048320;28;20110;-41
2022/04/09 07:24:47;;;;;;;8.90;2.00;;;6.40;99.90;;;;;;5046434;28;20118;-41
2022/04/09 07:27:13;;;;;;;7.50;1.80;;;6.50;99.90;;;;;;5047460;28;20559;-41
2022/04/09 07:29:39;;;;;;;11.10;4.22;;;6.60;99.90;;;;;;5047699;28;20108;-42
2022/04/09 07:32:04;;;;;;;5.72;1.42;;;6.70;99.90;;;;;;5046912;28;20044;-41
2022/04/09 07:34:30;;;;;;;3.75;1.27;;;7.00;99.90;;;;;;5048209;28;20078;-41
2022/04/09 07:36:56;;;;;;;7.30;1.90;;;7.20;99.90;;;;;;5039201;28;20481;-41
2022/04/09 07:39:21;;;;;;;6.10;1.33;;;7.10;99.90;;;;;;5048486;28;20233;-42
2022/04/09 07:41:47;;;;;;;6.15;1.58;;;6.80;99.90;;;;;;5047927;28;20027;-42
2022/04/09 07:44:13;;;;;;;6.13;1.23;;;6.60;99.90;;;;;;5048232;28;20489;-42
2022/04/09 07:46:39;;;;;;;6.18;1.35;;;6.40;99.90;;;;;;5048578;28;20037;-42
2022/04/09 07:49:04;;;;;;;3.58;1.08;;;6.30;99.90;;;;;;5045266;28;20089;-41
2022/04/09 07:51:30;;;;;;;4.30;0.90;;;6.20;99.90;;;;;;5047459;28;20033;-41
2022/04/09 07:53:55;;;;;;;6.65;1.35;;;6.10;99.90;;;;;;5047867;28;20021;-42
2022/04/09 07:56:21;;;;;;;4.00;1.15;;;6.00;99.90;;;;;;5048405;28;20123;-41
2022/04/09 07:58:46;;;;;;;3.80;1.40;;;5.80;99.90;;;;;;5046752;28;20762;-41
2022/04/09 08:01:12;;;;;;;4.03;1.10;;;5.80;99.90;;;;;;5048140;28;20499;-41
2022/04/09 08:03:37;;;;;;;4.85;1.50;;;5.70;99.90;;;;;;5047631;28;20032;-43
2022/04/09 08:06:05;;;;;;;4.13;1.10;;;5.70;99.90;;;;;;5047044;28;20037;-39
2022/04/09 08:08:31;;;;;;;3.63;1.00;;;5.80;99.90;;;;;;5047930;28;20021;-41
2022/04/09 08:10:57;;;;;;;4.57;1.55;;;5.80;99.90;;;;;;5047104;28;20100;-40
2022/04/09 08:13:22;;;;;;;2.60;1.08;;;5.90;99.90;;;;;;5047019;28;20024;-40
2022/04/09 08:15:48;;;;;;;2.03;0.95;;;6.00;99.90;;;;;;5047385;28;20044;-41
2022/04/09 08:18:13;;;;;;;3.58;1.23;;;6.10;99.90;;;;;;5047167;28;20029;-43
2022/04/09 08:20:40;;;;;;;5.00;1.25;;;6.20;99.90;;;;;;5046989;28;20124;-42
2022/04/09 08:23:05;;;;;;;7.75;1.25;;;6.40;99.90;;;;;;5046933;28;20389;-41
2022/04/09 08:25:31;;;;;;;6.15;1.10;;;6.50;99.90;;;;;;5046384;28;20120;-42
2022/04/09 08:27:57;;;;;;;3.15;1.13;;;6.60;99.90;;;;;;5046105;28;20563;-41
2022/04/09 08:30:22;;;;;;;3.50;1.00;;;6.80;99.90;;;;;;5047755;28;20021;-42
2022/04/09 08:32:52;;;;;;;4.28;1.00;;;6.80;99.90;;;;;;5046859;28;20029;-42
2022/04/09 08:35:19;;;;;;;4.18;1.10;;;6.90;99.90;;;;;;5047001;28;20032;-41
2022/04/09 08:37:54;;;;;;;6.10;2.00;;;7.00;99.90;;;;;;5046947;28;20078;-41
2022/04/09 08:40:23;;;;;;;5.57;1.42;;;7.20;99.90;;;;;;5047460;28;20027;-42
2022/04/09 08:42:49;;;;;;;6.03;1.38;;;7.40;99.90;;;;;;5046868;28;20052;-40
2022/04/09 08:45:15;;;;;;;6.28;1.20;;;7.60;99.90;;;;;;5046916;28;20131;-42
2022/04/09 08:47:42;;;;;;;5.50;1.30;;;7.90;99.90;;;;;;5046157;28;20037;-42
2022/04/09 08:50:11;;;;;;;8.05;1.20;;;7.90;99.90;;;;;;5046708;28;20055;-42
2022/04/09 08:52:46;;;;;;;3.03;1.00;;;7.90;99.90;;;;;;5047197;28;20158;-41
2022/04/09 08:55:13;;;;;;;4.10;1.15;;;7.90;99.90;;;;;;5046783;28;20045;-41
2022/04/09 08:57:40;;;;;;;5.22;1.23;;;7.80;99.90;;;;;;5046836;28;20075;-42
2022/04/09 09:00:10;;;;;;;6.65;1.27;;;7.70;99.90;;;;;;5046831;28;20028;-42
2022/04/09 09:02:36;;;;;;;6.05;1.48;;;7.70;99.90;;;;;;5045823;28;20037;-43
2022/04/09 09:05:05;;;;;;;4.88;1.10;;;7.60;99.90;;;;;;5045884;28;20813;-43
2022/04/09 09:07:31;;;;;;;4.68;0.93;;;7.70;99.90;;;;;;5047034;28;20103;-41
2022/04/09 09:10:16;;;;;;;3.95;1.25;;;7.70;99.90;;;;;;5045649;28;20378;-42
2022/04/09 09:12:42;;;;;;;4.60;1.15;;;7.80;99.90;;;;;;5046051;28;20835;-41
2022/04/09 09:15:08;;;;;;;5.03;1.30;;;7.90;99.90;;;;;;5046605;28;20123;-41
2022/04/09 09:17:34;;;;;;;3.53;1.02;;;8.10;99.90;;;;;;5046287;28;20017;-42
2022/04/09 09:20:00;;;;;;;6.55;1.63;;;8.30;99.90;;;;;;5046001;28;20384;-40
2022/04/09 09:22:39;;;;;;;4.15;1.48;;;8.50;99.90;;;;;;5046643;28;20481;-39
2022/04/09 09:25:13;;;;;;;4.20;1.35;;;8.60;99.90;;;;;;5045784;28;20051;-41
2022/04/09 09:27:40;;;;;;;4.07;1.08;;;8.70;99.90;;;;;;5036261;28;20468;-40
2022/04/09 09:30:09;;;;;;;5.93;1.50;;;8.60;99.90;;;;;;5045202;28;20037;-40
2022/04/09 09:32:35;;;;;;;3.88;1.10;;;8.50;99.90;;;;;;5045671;28;20041;-40
2022/04/09 09:35:02;;;;;;;3.78;1.40;;;8.40;99.90;;;;;;5042438;28;20544;-41
2022/04/09 09:37:30;;;;;;;4.63;1.35;;;8.30;99.90;;;;;;5044988;28;20043;-40
2022/04/09 09:39:56;;;;;;;6.90;1.30;;;8.20;99.90;;;;;;5046716;28;20064;-43
2022/04/09 09:42:24;;;;;;;5.55;1.17;;;8.10;99.90;;;;;;5045844;28;20024;-39
2022/04/09 09:44:50;;;;;;;3.67;1.30;;;8.10;99.90;;;;;;5045135;28;20021;-41
2022/04/09 09:47:17;;;;;;;3.38;1.00;;;8.20;99.90;;;;;;5046107;28;20021;-42
2022/04/09 09:50:03;;;;;;;5.18;1.20;;;8.40;99.90;;;;;;5045288;28;20041;-41
2022/04/09 09:52:36;;;;;;;3.17;1.30;;;8.60;99.90;;;;;;5043443;28;20033;-43
2022/04/09 09:55:18;;;;;;;6.38;1.25;;;8.60;99.90;;;;;;5044502;28;20072;-42
2022/04/09 09:57:49;;;;;;;3.25;1.17;;;8.40;99.90;;;;;;5043942;28;20053;-40
2022/04/09 10:00:15;;;;;;;3.38;1.00;;;8.10;99.90;;;;;;5045522;28;20041;-41
2022/04/09 10:02:44;;;;;;;3.72;1.02;;;7.80;99.90;;;;;;5044716;28;20025;-43
2022/04/09 10:05:09;;;;;;;4.45;0.73;;;7.40;99.90;;;;;;5045585;28;20075;-39
2022/04/09 10:07:36;;;;;;;1.83;0.60;;;7.00;99.90;;;;;;5044662;28;20037;-42
2022/04/09 10:10:06;;;;;;;2.25;0.80;;;6.50;99.90;;;;;;5045119;28;20522;-44
2022/04/09 10:12:41;;;;;;;1.63;0.63;;;6.30;99.90;;;;;;5044518;28;20029;-38
2022/04/09 10:15:08;;;;;;;1.23;0.55;;;6.10;99.90;;;;;;5045461;28;20207;-43
2022/04/09 10:17:35;;;;;;;1.05;0.50;;;6.00;99.90;;;;;;5045618;28;20469;-41
2022/04/09 10:20:02;;;;;;;2.92;0.73;;;6.00;99.90;;;;;;5044326;28;20036;-41
2022/04/09 10:22:31;;;;;;;3.33;0.68;;;6.00;99.90;;;;;;5045374;28;20052;-41
2022/04/09 10:24:58;;;;;;;2.50;0.50;;;6.10;99.90;;;;;;5044834;28;20175;-42
2022/04/09 10:27:32;;;;;;;3.50;0.95;;;6.00;99.90;;;;;;5044086;28;20017;-42
2022/04/09 10:30:01;;;;;;;3.03;1.10;;;6.00;99.90;;;;;;5045296;28;20094;-41
2022/04/09 10:32:43;;;;;;;0.85;0.60;;;6.20;99.90;;;;;;5045143;28;20040;-42
2022/04/09 10:35:24;;;;;;;2.15;0.70;;;6.50;99.90;;;;;;5044199;28;20033;-42
2022/04/09 10:38:12;;;;;;;2.33;0.60;;;6.70;99.90;;;;;;5044904;28;20029;-41
2022/04/09 10:40:50;;;;;;;1.70;0.73;;;6.80;99.90;;;;;;5044814;28;20040;-42
2022/04/09 10:43:28;;;;;;;2.70;0.80;;;6.80;99.90;;;;;;5045437;28;20024;-41
2022/04/09 10:46:11;;;;;;;2.30;0.90;;;6.90;99.90;;;;;;5045038;28;20029;-41
2022/04/09 10:48:42;;;;;;;1.63;0.55;;;7.00;99.90;;;;;;5047308;28;20170;-42
2022/04/09 10:51:11;;;;;;;3.30;1.00;;;7.00;99.90;;;;;;5049550;28;20566;-39
2022/04/09 10:53:48;;;;;;;2.75;0.70;;;7.00;99.90;;;;;;5049234;28;20052;-42
2022/04/09 10:56:17;;;;;;;3.08;0.68;;;7.00;99.90;;;;;;5048586;28;20083;-42
2022/04/09 10:59:12;;;;;;;2.70;1.00;;;6.90;99.90;;;;;;5048596;28;20110;-41
2022/04/09 11:01:47;;;;;;;2.13;1.23;;;6.90;99.90;;;;;;5048987;28;20068;-42
2022/04/09 11:04:41;;;;;;;3.33;1.33;;;7.00;99.90;;;;;;5048860;28;20051;-41
2022/04/09 11:07:15;;;;;;;3.22;1.00;;;7.30;99.90;;;;;;5049195;28;20036;-41
2022/04/09 11:09:56;;;;;;;2.75;0.73;;;7.50;99.90;;;;;;5047978;28;20380;-42
2022/04/09 11:12:42;;;;;;;3.20;1.00;;;7.70;99.90;;;;;;5029880;28;20034;-42
2022/04/09 11:15:19;;;;;;;3.78;1.10;;;7.90;99.90;;;;;;5044737;28;20527;-42
2022/04/09 11:17:46;;;;;;;2.63;0.90;;;7.80;99.90;;;;;;5048781;28;20056;-42
2022/04/09 11:20:18;;;;;;;3.70;1.10;;;7.80;99.90;;;;;;5048786;28;20037;-41
2022/04/09 11:22:47;;;;;;;5.07;1.60;;;7.60;99.90;;;;;;5027972;28;20052;-41
2022/04/09 11:25:19;;;;;;;4.03;1.10;;;7.40;99.90;;;;;;5043319;28;20060;-40
2022/04/09 11:27:46;;;;;;;3.70;0.90;;;7.10;99.90;;;;;;5048015;28;20036;-43
2022/04/09 11:30:12;;;;;;;1.60;0.75;;;6.80;99.90;;;;;;5048262;28;20070;-41
2022/04/09 11:32:38;;;;;;;2.40;0.77;;;6.70;99.90;;;;;;5048587;28;20388;-41
2022/04/09 11:35:10;;;;;;;2.67;0.90;;;6.70;99.90;;;;;;5047465;28;20562;-41
2022/04/09 11:37:41;;;;;;;2.10;0.60;;;6.80;99.90;;;;;;5047973;28;20481;-42
2022/04/09 11:40:08;;;;;;;2.50;1.02;;;6.90;99.90;;;;;;5048004;28;20037;-42
2022/04/09 11:42:45;;;;;;;2.20;0.90;;;7.00;99.90;;;;;;5046445;28;20041;-42
2022/04/09 11:45:23;;;;;;;3.83;1.45;;;7.00;99.90;;;;;;5037003;28;20029;-41
2022/04/09 11:47:49;;;;;;;7.28;1.20;;;7.00;99.90;;;;;;5047723;28;20490;-41
2022/04/09 11:50:16;;;;;;;2.45;1.10;;;6.90;99.90;;;;;;5048013;28;20029;-39
2022/04/09 11:52:42;;;;;;;5.82;1.20;;;6.80;99.90;;;;;;5047540;28;20025;-42
2022/04/09 11:55:12;;;;;;;6.38;1.20;;;6.90;99.90;;;;;;5045999;28;20533;-39
2022/04/09 11:57:39;;;;;;;4.95;1.10;;;6.90;99.90;;;;;;5045921;28;20784;-42
2022/04/09 12:00:09;;;;;;;2.13;1.15;;;7.00;99.90;;;;;;5046411;28;20016;-41
2022/04/09 12:02:35;;;;;;;4.45;1.60;;;7.10;99.90;;;;;;5047039;28;20090;-41
2022/04/09 12:05:01;;;;;;;4.60;1.35;;;7.30;99.90;;;;;;5045025;28;20025;-42
2022/04/09 12:07:28;;;;;;;5.57;1.75;;;7.50;99.90;;;;;;5047232;28;20724;-41
2022/04/09 12:09:54;;;;;;;6.80;1.52;;;7.80;99.90;;;;;;5046347;28;20049;-40
2022/04/09 12:12:21;;;;;;;3.88;1.20;;;7.90;99.90;;;;;;5046215;28;20025;-42
2022/04/09 12:15:00;;;;;;;4.30;1.20;;;8.00;99.90;;;;;;5046998;28;20734;-42
2022/04/09 12:17:33;;;;;;;4.43;1.77;;;8.00;99.90;;;;;;5046911;28;20384;-42
2022/04/09 12:19:59;;;;;;;4.43;1.65;;;7.90;99.90;;;;;;5046600;28;20045;-41
2022/04/09 12:22:25;;;;;;;4.15;0.80;;;7.50;99.90;;;;;;5047503;28;20021;-42
2022/04/09 12:24:58;;;;;;;2.75;0.88;;;7.10;99.90;;;;;;5046828;28;20018;-42
2022/04/09 12:27:46;;;;;;;2.25;1.00;;;6.70;99.90;;;;;;5046945;28;20025;-41
2022/04/09 12:30:15;;;;;;;4.38;1.00;;;6.50;99.90;;;;;;5046967;28;20112;-42
2022/04/09 12:32:41;;;;;;;5.35;1.20;;;6.40;99.90;;;;;;5046711;28;20071;-41
2022/04/09 12:35:11;;;;;;;6.05;1.10;;;6.50;99.90;;;;;;5044327;28;20138;-39
2022/04/09 12:37:48;;;;;;;3.60;1.13;;;6.50;99.90;;;;;;5045854;28;20468;-42
2022/04/09 12:40:19;;;;;;;3.10;1.10;;;6.60;99.90;;;;;;5045320;28;20057;-40
2022/04/09 12:42:48;;;;;;;3.40;0.90;;;6.70;99.90;;;;;;5043002;28;20148;-39
2022/04/09 12:45:23;;;;;;;3.85;1.40;;;6.90;99.90;;;;;;5046261;28;20037;-41
2022/04/09 12:47:57;;;;;;;4.75;1.20;;;7.10;99.90;;;;;;5045130;28;20029;-41
2022/04/09 12:50:34;;;;;;;2.85;1.20;;;7.20;99.90;;;;;;5046773;28;20033;-41
2022/04/09 12:53:02;;;;;;;4.97;1.25;;;7.20;99.90;;;;;;5045553;28;20112;-38
2022/04/09 12:55:30;;;;;;;5.20;1.20;;;7.10;99.90;;;;;;5045821;28;20062;-41
2022/04/09 12:57:56;;;;;;;6.60;1.42;;;7.00;99.90;;;;;;5045681;28;20760;-41
2022/04/09 13:00:23;;;;;;;3.33;1.45;;;6.90;99.90;;;;;;5047080;28;20055;-41